createdAt,value
2023-05-16T00:02:07.710Z,102181.00
2023-05-16T00:04:34.806Z,102178.00
2023-05-16T00:07:01.647Z,102189.00
2023-05-16T00:09:28.515Z,102197.00
2023-05-16T00:11:55.344Z,102187.00
2023-05-16T00:14:22.123Z,102195.00
2023-05-16T00:16:49.029Z,102197.00
2023-05-16T00:19:16.045Z,102186.00
2023-05-16T00:21:44.921Z,102181.00
2023-05-16T00:24:11.760Z,102183.00
2023-05-16T00:26:38.524Z,102179.00
2023-05-16T00:29:05.489Z,102170.00
2023-05-16T00:31:32.427Z,102170.00
2023-05-16T00:33:59.229Z,102172.00
2023-05-16T00:36:26.080Z,102174.00
2023-05-16T00:38:52.878Z,102168.00
2023-05-16T00:41:19.819Z,102174.00
2023-05-16T00:43:46.634Z,102175.00
2023-05-16T00:46:13.572Z,102175.00
2023-05-16T00:48:40.706Z,102174.00
2023-05-16T00:51:09.623Z,102167.00
2023-05-16T00:53:37.342Z,102173.00
2023-05-16T00:56:06.302Z,102168.00
2023-05-16T00:58:34.162Z,102173.00
2023-05-16T01:01:04.009Z,102165.00
2023-05-16T01:03:31.685Z,102173.00
2023-05-16T01:05:58.929Z,102170.00
2023-05-16T01:08:25.591Z,102165.00
2023-05-16T01:11:21.021Z,102174.00
2023-05-16T01:14:12.249Z,102174.00
2023-05-16T01:17:18.326Z,102167.00
2023-05-16T01:20:06.436Z,102169.00
2023-05-16T01:22:33.514Z,102168.00
2023-05-16T01:25:11.896Z,102169.00
2023-05-16T01:27:39.283Z,102176.00
2023-05-16T01:30:17.684Z,102176.00
2023-05-16T01:32:44.764Z,102175.00
2023-05-16T01:35:14.395Z,102182.00
2023-05-16T01:37:58.681Z,102178.00
2023-05-16T01:41:04.408Z,102181.00
2023-05-16T01:43:35.688Z,102185.00
2023-05-16T01:46:16.759Z,102174.00
2023-05-16T01:49:07.513Z,102184.00
2023-05-16T01:51:38.879Z,102185.00
2023-05-16T01:54:09.350Z,102190.00
2023-05-16T01:56:38.260Z,102182.00
2023-05-16T01:59:06.479Z,102185.00
2023-05-16T02:01:33.767Z,102188.00
2023-05-16T02:04:00.729Z,102193.00
2023-05-16T02:06:27.628Z,102187.00
2023-05-16T02:08:54.497Z,102184.00
2023-05-16T02:11:22.266Z,102193.00
2023-05-16T02:13:49.096Z,102194.00
2023-05-16T02:16:16.008Z,102198.00
2023-05-16T02:18:43.197Z,102201.00
2023-05-16T02:21:10.046Z,102212.00
2023-05-16T02:23:36.979Z,102206.00
2023-05-16T02:26:04.564Z,102206.00
2023-05-16T02:28:31.184Z,102207.00
2023-05-16T02:30:59.614Z,102209.00
2023-05-16T02:33:27.605Z,102210.00
2023-05-16T02:35:55.761Z,102208.00
2023-05-16T02:38:22.610Z,102213.00
2023-05-16T02:40:49.586Z,102207.00
2023-05-16T02:43:16.458Z,102213.00
2023-05-16T02:45:43.627Z,102199.00
2023-05-16T02:48:10.574Z,102211.00
2023-05-16T02:50:37.763Z,102211.00
2023-05-16T02:53:04.799Z,102203.00
2023-05-16T02:55:31.605Z,102203.00
2023-05-16T02:57:58.464Z,102205.00
2023-05-16T03:00:25.234Z,102207.00
2023-05-16T03:02:52.091Z,102219.00
2023-05-16T03:05:19.177Z,102213.00
2023-05-16T03:07:46.146Z,102223.00
2023-05-16T03:10:12.953Z,102215.00
2023-05-16T03:12:39.885Z,102216.00
2023-05-16T03:15:08.430Z,102219.00
2023-05-16T03:17:35.354Z,102219.00
2023-05-16T03:20:02.309Z,102216.00
2023-05-16T03:22:28.977Z,102214.00
2023-05-16T03:24:56.608Z,102206.00
2023-05-16T03:27:23.406Z,102209.00
2023-05-16T03:29:50.259Z,102210.00
2023-05-16T03:32:16.946Z,102211.00
2023-05-16T03:34:43.754Z,102214.00
2023-05-16T03:37:11.229Z,102214.00
2023-05-16T03:39:38.092Z,102217.00
2023-05-16T03:42:05.092Z,102220.00
2023-05-16T03:44:31.860Z,102228.00
2023-05-16T03:46:58.877Z,102225.00
2023-05-16T03:49:30.346Z,102219.00
2023-05-16T03:51:57.629Z,102228.00
2023-05-16T03:54:24.324Z,102224.00
2023-05-16T03:56:51.095Z,102218.00
2023-05-16T03:59:17.863Z,102225.00
2023-05-16T04:01:44.716Z,102234.00
2023-05-16T04:04:11.416Z,102233.00
2023-05-16T04:06:38.246Z,102235.00
2023-05-16T04:09:06.652Z,102233.00
2023-05-16T04:11:34.275Z,102227.00
2023-05-16T04:14:01.993Z,102228.00
2023-05-16T04:16:29.004Z,102224.00
2023-05-16T04:18:56.534Z,102227.00
2023-05-16T04:21:23.566Z,102233.00
2023-05-16T04:23:50.267Z,102239.00
2023-05-16T04:26:17.056Z,102240.00
2023-05-16T04:28:43.978Z,102240.00
2023-05-16T04:31:11.491Z,102239.00
2023-05-16T04:33:38.662Z,102248.00
2023-05-16T04:36:06.252Z,102244.00
2023-05-16T04:38:33.262Z,102251.00
2023-05-16T04:41:00.179Z,102256.00
2023-05-16T04:43:27.175Z,102263.00
2023-05-16T04:45:54.279Z,102262.00
2023-05-16T04:48:21.020Z,102261.00
2023-05-16T04:50:47.833Z,102262.00
2023-05-16T04:53:15.169Z,102262.00
2023-05-16T04:55:42.058Z,102276.00
2023-05-16T04:58:08.826Z,102272.00
2023-05-16T05:00:35.998Z,102277.00
2023-05-16T05:03:02.822Z,102269.00
2023-05-16T05:05:30.159Z,102272.00
2023-05-16T05:07:58.906Z,102271.00
2023-05-16T05:10:25.622Z,102270.00
2023-05-16T05:12:52.445Z,102270.00
2023-05-16T05:15:19.608Z,102272.00
2023-05-16T05:17:46.548Z,102274.00
2023-05-16T05:20:13.620Z,102269.00
2023-05-16T05:22:40.608Z,102275.00
2023-05-16T05:25:08.530Z,102262.00
2023-05-16T05:27:35.657Z,102263.00
2023-05-16T05:30:04.106Z,102262.00
2023-05-16T05:32:31.286Z,102275.00
2023-05-16T05:34:58.244Z,102272.00
2023-05-16T05:37:25.597Z,102270.00
2023-05-16T05:39:52.473Z,102280.00
2023-05-16T05:42:19.338Z,102280.00
2023-05-16T05:44:46.154Z,102282.00
2023-05-16T05:47:12.978Z,102282.00
2023-05-16T05:49:39.903Z,102289.00
2023-05-16T05:52:06.862Z,102290.00
2023-05-16T05:54:33.921Z,102297.00
2023-05-16T05:57:00.901Z,102293.00
2023-05-16T05:59:27.732Z,102302.00
2023-05-16T06:01:54.644Z,102306.00
2023-05-16T06:04:22.052Z,102295.00
2023-05-16T06:06:48.825Z,102302.00
2023-05-16T06:09:15.673Z,102305.00
2023-05-16T06:11:43.405Z,102300.00
2023-05-16T06:14:10.195Z,102303.00
2023-05-16T06:16:36.960Z,102298.00
2023-05-16T06:19:04.399Z,102302.00
2023-05-16T06:21:31.202Z,102307.00
2023-05-16T06:23:57.831Z,102310.00
2023-05-16T06:26:24.707Z,102312.00
2023-05-16T06:28:51.497Z,102308.00
2023-05-16T06:31:18.224Z,102321.00
2023-05-16T06:33:45.023Z,102319.00
2023-05-16T06:36:11.989Z,102321.00
2023-05-16T06:38:38.690Z,102324.00
2023-05-16T06:41:05.290Z,102333.00
2023-05-16T06:43:32.048Z,102327.00
2023-05-16T06:45:58.852Z,102330.00
2023-05-16T06:48:25.684Z,102329.00
2023-05-16T06:50:52.626Z,102334.00
2023-05-16T06:53:19.698Z,102329.00
2023-05-16T06:55:47.223Z,102330.00
2023-05-16T06:58:14.048Z,102335.00
2023-05-16T07:00:41.804Z,102332.00
2023-05-16T07:03:08.910Z,102334.00
2023-05-16T07:05:35.969Z,102337.00
2023-05-16T07:08:04.205Z,102331.00
2023-05-16T07:10:32.583Z,102335.00
2023-05-16T07:13:01.675Z,102328.00
2023-05-16T07:15:29.020Z,102335.00
2023-05-16T07:17:56.222Z,102338.00
2023-05-16T07:20:23.730Z,102334.00
2023-05-16T07:22:50.675Z,102348.00
2023-05-16T07:25:18.594Z,102343.00
2023-05-16T07:27:45.648Z,102351.00
2023-05-16T07:30:13.544Z,102357.00
2023-05-16T07:32:41.216Z,102353.00
2023-05-16T07:35:08.520Z,102352.00
2023-05-16T07:37:36.129Z,102355.00
2023-05-16T07:40:03.948Z,102357.00
2023-05-16T07:42:31.733Z,102350.00
2023-05-16T07:44:58.768Z,102345.00
2023-05-16T07:47:26.066Z,102359.00
2023-05-16T07:49:53.253Z,102360.00
2023-05-16T07:52:20.396Z,102366.00
2023-05-16T07:54:47.868Z,102364.00
2023-05-16T07:57:16.088Z,102371.00
2023-05-16T07:59:44.019Z,102370.00
2023-05-16T08:02:11.670Z,102367.00
2023-05-16T08:04:38.932Z,102371.00
2023-05-16T08:07:06.232Z,102369.00
2023-05-16T08:09:33.471Z,102378.00
2023-05-16T08:12:03.818Z,102381.00
2023-05-16T08:14:33.056Z,102383.00
2023-05-16T08:17:00.905Z,102386.00
2023-05-16T08:19:28.170Z,102387.00
2023-05-16T08:21:55.400Z,102389.00
2023-05-16T08:24:22.233Z,102390.00
2023-05-16T08:26:49.107Z,102394.00
2023-05-16T08:29:16.031Z,102387.00
2023-05-16T08:31:42.971Z,102388.00
2023-05-16T08:34:10.518Z,102387.00
2023-05-16T08:36:38.231Z,102392.00
2023-05-16T08:39:05.547Z,102383.00
2023-05-16T08:41:32.476Z,102386.00
2023-05-16T08:43:59.534Z,102392.00
2023-05-16T08:46:29.244Z,102378.00
2023-05-16T08:48:59.713Z,102388.00
2023-05-16T08:51:28.817Z,102385.00
2023-05-16T08:54:03.540Z,102378.00
2023-05-16T08:56:31.712Z,102383.00
2023-05-16T08:58:59.045Z,102383.00
2023-05-16T09:01:26.182Z,102391.00
2023-05-16T09:03:53.850Z,102389.00
2023-05-16T09:06:20.775Z,102383.00
2023-05-16T09:08:47.627Z,102390.00
2023-05-16T09:11:14.337Z,102386.00
2023-05-16T09:13:41.038Z,102385.00
2023-05-16T09:16:16.149Z,102376.00
2023-05-16T09:18:53.883Z,102387.00
2023-05-16T09:21:21.035Z,102388.00
2023-05-16T09:23:50.201Z,102390.00
2023-05-16T09:26:18.088Z,102388.00
2023-05-16T09:28:45.349Z,102397.00
2023-05-16T09:31:23.000Z,102390.00
2023-05-16T09:33:50.814Z,102390.00
2023-05-16T09:36:17.729Z,102392.00
2023-05-16T09:38:45.098Z,102393.00
2023-05-16T09:41:11.996Z,102390.00
2023-05-16T09:43:41.981Z,102384.00
2023-05-16T09:46:09.046Z,102393.00
2023-05-16T09:48:36.490Z,102398.00
2023-05-16T09:51:06.416Z,102391.00
2023-05-16T09:53:33.915Z,102396.00
2023-05-16T09:56:05.658Z,102397.00
2023-05-16T09:58:34.932Z,102393.00
2023-05-16T10:01:02.753Z,102399.00
2023-05-16T10:03:29.771Z,102399.00
2023-05-16T10:05:57.166Z,102391.00
2023-05-16T10:08:27.451Z,102399.00
2023-05-16T10:10:55.842Z,102397.00
2023-05-16T10:13:25.946Z,102400.00
2023-05-16T10:15:56.362Z,102397.00
2023-05-16T10:18:25.168Z,102398.00
2023-05-16T10:20:55.340Z,102401.00
2023-05-16T10:23:22.718Z,102392.00
2023-05-16T10:25:50.086Z,102407.00
2023-05-16T10:28:17.029Z,102398.00
2023-05-16T10:30:46.900Z,102400.00
2023-05-16T10:33:16.126Z,102397.00
2023-05-16T10:35:43.882Z,102392.00
2023-05-16T10:38:12.817Z,102400.00
2023-05-16T10:40:40.939Z,102399.00
2023-05-16T10:43:08.938Z,102404.00
2023-05-16T10:45:40.400Z,102400.00
2023-05-16T10:48:10.117Z,102390.00
2023-05-16T10:50:44.583Z,102390.00
2023-05-16T10:53:20.908Z,102397.00
2023-05-16T10:56:00.987Z,102397.00
2023-05-16T10:58:35.225Z,102397.00
2023-05-16T11:01:22.370Z,102399.00
2023-05-16T11:04:00.941Z,102404.00
2023-05-16T11:06:35.325Z,102406.00
2023-05-16T11:09:11.076Z,102406.00
2023-05-16T11:11:48.610Z,102406.00
2023-05-16T11:14:24.136Z,102406.00
2023-05-16T11:17:13.785Z,102407.00
2023-05-16T11:19:51.250Z,102395.00
2023-05-16T11:22:21.908Z,102397.00
2023-05-16T11:25:02.190Z,102394.00
2023-05-16T11:27:28.856Z,102405.00
2023-05-16T11:30:02.013Z,102404.00
2023-05-16T11:32:31.130Z,102405.00
2023-05-16T11:34:58.361Z,102395.00
2023-05-16T11:37:25.490Z,102408.00
2023-05-16T11:39:52.390Z,102406.00
2023-05-16T11:42:19.197Z,102407.00
2023-05-16T11:44:46.029Z,102410.00
2023-05-16T11:47:12.906Z,102416.00
2023-05-16T11:49:39.746Z,102404.00
2023-05-16T11:52:08.540Z,102407.00
2023-05-16T11:54:35.524Z,102417.00
2023-05-16T11:57:03.234Z,102413.00
2023-05-16T11:59:30.114Z,102403.00
2023-05-16T12:01:56.917Z,102414.00
2023-05-16T12:04:23.849Z,102404.00
2023-05-16T12:06:59.997Z,102411.00
2023-05-16T12:09:26.802Z,102417.00
2023-05-16T12:11:53.656Z,102419.00
2023-05-16T12:14:20.702Z,102410.00
2023-05-16T12:16:50.298Z,102409.00
2023-05-16T12:19:17.272Z,102419.00
2023-05-16T12:21:44.007Z,102406.00
2023-05-16T12:24:12.966Z,102407.00
2023-05-16T12:26:42.535Z,102412.00
2023-05-16T12:29:11.532Z,102415.00
2023-05-16T12:31:40.593Z,102403.00
2023-05-16T12:34:17.808Z,102411.00
2023-05-16T12:36:44.625Z,102409.00
2023-05-16T12:39:13.140Z,102406.00
2023-05-16T12:41:43.432Z,102414.00
2023-05-16T12:44:14.848Z,102413.00
2023-05-16T12:46:46.250Z,102411.00
2023-05-16T12:49:13.711Z,102408.00
2023-05-16T12:51:48.671Z,102419.00
2023-05-16T12:54:15.392Z,102419.00
2023-05-16T12:56:42.186Z,102420.00
2023-05-16T12:59:09.052Z,102429.00
2023-05-16T13:01:36.983Z,102427.00
2023-05-16T13:04:05.196Z,102424.00
2023-05-16T13:06:44.833Z,102426.00
2023-05-16T13:09:12.661Z,102428.00
2023-05-16T13:11:39.353Z,102424.00
2023-05-16T13:14:06.108Z,102426.00
2023-05-16T13:16:32.829Z,102426.00
2023-05-16T13:18:59.982Z,102429.00
2023-05-16T13:21:28.195Z,102428.00
2023-05-16T13:23:55.010Z,102427.00
2023-05-16T13:26:22.528Z,102429.00
2023-05-16T13:28:53.044Z,102430.00
2023-05-16T13:31:19.866Z,102435.00
2023-05-16T13:33:46.548Z,102426.00
2023-05-16T13:36:13.336Z,102427.00
2023-05-16T13:38:40.354Z,102427.00
2023-05-16T13:41:07.251Z,102429.00
2023-05-16T13:43:34.194Z,102426.00
2023-05-16T13:46:01.209Z,102421.00
2023-05-16T13:48:27.867Z,102434.00
2023-05-16T13:50:55.810Z,102417.00
2023-05-16T13:53:22.460Z,102418.00
2023-05-16T13:55:49.073Z,102407.00
2023-05-16T13:58:16.059Z,102418.00
2023-05-16T14:00:46.078Z,102419.00
2023-05-16T14:03:13.341Z,102418.00
2023-05-16T14:05:40.161Z,102413.00
2023-05-16T14:08:07.848Z,102413.00
2023-05-16T14:10:34.486Z,102415.00
2023-05-16T14:13:01.108Z,102421.00
2023-05-16T14:15:27.994Z,102416.00
2023-05-16T14:17:54.855Z,102418.00
2023-05-16T14:20:21.635Z,102416.00
2023-05-16T14:22:48.313Z,102419.00
2023-05-16T14:25:15.004Z,102416.00
2023-05-16T14:27:41.676Z,102420.00
2023-05-16T14:30:09.618Z,102413.00
2023-05-16T14:32:36.474Z,102421.00
2023-05-16T14:35:05.469Z,102422.00
2023-05-16T14:37:32.124Z,102414.00
2023-05-16T14:39:59.764Z,102421.00
2023-05-16T14:42:26.734Z,102417.00
2023-05-16T14:44:53.411Z,102416.00
2023-05-16T14:47:20.398Z,102418.00
2023-05-16T14:49:47.180Z,102412.00
2023-05-16T14:52:14.374Z,102413.00
2023-05-16T14:54:41.118Z,102412.00
2023-05-16T14:57:08.264Z,102418.00
2023-05-16T14:59:34.982Z,102421.00
2023-05-16T15:02:01.897Z,102416.00
2023-05-16T15:04:29.108Z,102425.00
2023-05-16T15:06:56.071Z,102419.00
2023-05-16T15:09:23.001Z,102422.00
2023-05-16T15:11:49.674Z,102417.00
2023-05-16T15:14:17.206Z,102416.00
2023-05-16T15:16:44.853Z,102416.00
2023-05-16T15:19:13.181Z,102411.00
2023-05-16T15:21:40.168Z,102413.00
2023-05-16T15:24:08.332Z,102414.00
2023-05-16T15:26:35.631Z,102422.00
2023-05-16T15:29:02.532Z,102422.00
2023-05-16T15:31:31.582Z,102423.00
2023-05-16T15:33:58.454Z,102428.00
2023-05-16T15:36:25.653Z,102433.00
2023-05-16T15:38:53.191Z,102422.00
2023-05-16T15:41:43.239Z,102427.00
2023-05-16T15:44:07.826Z,102426.00
2023-05-16T15:46:34.532Z,102428.00
2023-05-16T15:49:01.333Z,102438.00
2023-05-16T15:51:28.149Z,102440.00
2023-05-16T15:53:54.820Z,102439.00
2023-05-16T15:56:21.898Z,102442.00
2023-05-16T15:58:48.649Z,102442.00
2023-05-16T16:01:16.549Z,102442.00
2023-05-16T16:03:43.893Z,102446.00
2023-05-16T16:06:10.865Z,102451.00
2023-05-16T16:08:37.512Z,102450.00
2023-05-16T16:11:04.937Z,102452.00
2023-05-16T16:13:32.057Z,102448.00
2023-05-16T16:15:58.723Z,102448.00
2023-05-16T16:18:25.512Z,102453.00
2023-05-16T16:20:53.123Z,102463.00
2023-05-16T16:23:19.865Z,102454.00
2023-05-16T16:25:46.547Z,102458.00
2023-05-16T16:28:13.293Z,102448.00
2023-05-16T16:30:40.850Z,102458.00
2023-05-16T16:33:07.874Z,102459.00
2023-05-16T16:35:34.888Z,102454.00
2023-05-16T16:38:06.185Z,102456.00
2023-05-16T16:40:34.567Z,102449.00
2023-05-16T16:43:01.683Z,102450.00
2023-05-16T16:45:30.135Z,102458.00
2023-05-16T16:47:58.020Z,102458.00
2023-05-16T16:50:25.399Z,102463.00
2023-05-16T16:52:53.990Z,102469.00
2023-05-16T16:55:21.368Z,102466.00
2023-05-16T16:57:48.017Z,102470.00
2023-05-16T17:00:15.432Z,102467.00
2023-05-16T17:02:42.323Z,102469.00
2023-05-16T17:05:10.593Z,102476.00
2023-05-16T17:07:37.674Z,102476.00
2023-05-16T17:10:05.094Z,102475.00
2023-05-16T17:12:34.691Z,102478.00
2023-05-16T17:15:02.467Z,102478.00
2023-05-16T17:17:29.410Z,102472.00
2023-05-16T17:19:56.331Z,102474.00
2023-05-16T17:22:23.091Z,102481.00
2023-05-16T17:24:50.024Z,102485.00
2023-05-16T17:27:17.182Z,102491.00
2023-05-16T17:29:43.892Z,102477.00
2023-05-16T17:32:10.906Z,102486.00
2023-05-16T17:34:37.796Z,102479.00
2023-05-16T17:37:06.524Z,102486.00
2023-05-16T17:39:34.236Z,102482.00
2023-05-16T17:42:00.998Z,102495.00
2023-05-16T17:44:27.898Z,102488.00
2023-05-16T17:46:54.782Z,102492.00
2023-05-16T17:49:21.851Z,102491.00
2023-05-16T17:51:53.325Z,102488.00
2023-05-16T17:54:21.611Z,102491.00
2023-05-16T17:56:50.507Z,102500.00
2023-05-16T17:59:18.164Z,102500.00
2023-05-16T18:01:45.231Z,102498.00
2023-05-16T18:04:13.305Z,102512.00
2023-05-16T18:06:41.092Z,102507.00
2023-05-16T18:09:10.009Z,102508.00
2023-05-16T18:11:39.135Z,102507.00
2023-05-16T18:14:05.979Z,102512.00
2023-05-16T18:16:33.093Z,102503.00
2023-05-16T18:19:00.139Z,102501.00
2023-05-16T18:21:27.852Z,102496.00
2023-05-16T18:23:56.477Z,102499.00
2023-05-16T18:26:25.017Z,102502.00
2023-05-16T18:28:51.772Z,102500.00
2023-05-16T18:31:18.836Z,102515.00
2023-05-16T18:33:45.638Z,102512.00
2023-05-16T18:36:12.428Z,102517.00
2023-05-16T18:38:39.340Z,102521.00
2023-05-16T18:41:06.516Z,102520.00
2023-05-16T18:43:35.522Z,102526.00
2023-05-16T18:46:03.422Z,102526.00
2023-05-16T18:48:30.270Z,102511.00
2023-05-16T18:50:57.173Z,102516.00
2023-05-16T18:53:23.984Z,102516.00
2023-05-16T18:55:50.926Z,102511.00
2023-05-16T18:58:17.743Z,102516.00
2023-05-16T19:00:44.700Z,102524.00
2023-05-16T19:03:13.261Z,102521.00
2023-05-16T19:05:40.351Z,102523.00
2023-05-16T19:08:07.235Z,102526.00
2023-05-16T19:10:38.122Z,102537.00
2023-05-16T19:13:08.943Z,102537.00
2023-05-16T19:15:37.358Z,102524.00
2023-05-16T19:18:04.948Z,102533.00
2023-05-16T19:20:33.632Z,102526.00
2023-05-16T19:23:01.015Z,102543.00
2023-05-16T19:25:28.143Z,102535.00
2023-05-16T19:27:54.912Z,102534.00
2023-05-16T19:30:21.830Z,102534.00
2023-05-16T19:32:48.593Z,102544.00
2023-05-16T19:35:15.307Z,102549.00
2023-05-16T19:37:41.961Z,102547.00
2023-05-16T19:40:08.908Z,102550.00
2023-05-16T19:42:35.719Z,102554.00
2023-05-16T19:45:02.362Z,102549.00
2023-05-16T19:47:29.126Z,102559.00
2023-05-16T19:49:56.091Z,102569.00
2023-05-16T19:52:22.781Z,102562.00
2023-05-16T19:54:49.480Z,102561.00
2023-05-16T19:57:16.045Z,102565.00
2023-05-16T19:59:42.751Z,102569.00
2023-05-16T20:02:09.388Z,102578.00
2023-05-16T20:04:36.038Z,102578.00
2023-05-16T20:07:02.732Z,102578.00
2023-05-16T20:09:29.738Z,102580.00
2023-05-16T20:11:57.484Z,102588.00
2023-05-16T20:14:24.281Z,102587.00
2023-05-16T20:16:51.474Z,102589.00
2023-05-16T20:19:19.357Z,102588.00
2023-05-16T20:21:46.349Z,102590.00
2023-05-16T20:24:13.736Z,102587.00
2023-05-16T20:26:40.643Z,102597.00
2023-05-16T20:29:07.541Z,102588.00
2023-05-16T20:31:34.668Z,102592.00
2023-05-16T20:34:04.481Z,102589.00
2023-05-16T20:36:31.285Z,102591.00
2023-05-16T20:38:58.102Z,102598.00
2023-05-16T20:41:24.773Z,102600.00
2023-05-16T20:43:51.745Z,102606.00
2023-05-16T20:46:18.564Z,102601.00
2023-05-16T20:48:45.425Z,102600.00
2023-05-16T20:51:12.171Z,102607.00
2023-05-16T20:53:38.814Z,102601.00
2023-05-16T20:56:05.780Z,102612.00
2023-05-16T20:58:32.574Z,102609.00
2023-05-16T21:00:59.325Z,102614.00
2023-05-16T21:03:25.978Z,102616.00
2023-05-16T21:05:52.778Z,102606.00
2023-05-16T21:08:19.497Z,102607.00
2023-05-16T21:10:46.229Z,102612.00
2023-05-16T21:13:12.948Z,102607.00
2023-05-16T21:15:39.840Z,102615.00
2023-05-16T21:18:06.850Z,102614.00
2023-05-16T21:20:33.661Z,102619.00
2023-05-16T21:23:00.398Z,102612.00
2023-05-16T21:25:27.277Z,102611.00
2023-05-16T21:27:54.152Z,102620.00
2023-05-16T21:30:20.949Z,102615.00
2023-05-16T21:32:47.693Z,102615.00
2023-05-16T21:35:14.559Z,102615.00
2023-05-16T21:37:41.249Z,102611.00
2023-05-16T21:40:09.514Z,102606.00
2023-05-16T21:42:36.781Z,102610.00
2023-05-16T21:45:03.652Z,102607.00
2023-05-16T21:47:30.446Z,102617.00
2023-05-16T21:49:57.088Z,102612.00
2023-05-16T21:52:23.816Z,102610.00
2023-05-16T21:54:51.993Z,102620.00
2023-05-16T21:57:19.659Z,102622.00
2023-05-16T21:59:46.521Z,102626.00
2023-05-16T22:02:13.288Z,102626.00
2023-05-16T22:04:39.950Z,102622.00
2023-05-16T22:07:06.922Z,102619.00
2023-05-16T22:09:33.696Z,102626.00
2023-05-16T22:12:00.464Z,102616.00
2023-05-16T22:14:27.136Z,102609.00
2023-05-16T22:16:53.827Z,102611.00
2023-05-16T22:19:20.684Z,102606.00
2023-05-16T22:21:47.394Z,102601.00
2023-05-16T22:24:14.046Z,102610.00
2023-05-16T22:26:40.832Z,102616.00
2023-05-16T22:29:07.754Z,102610.00
2023-05-16T22:31:34.567Z,102616.00
2023-05-16T22:34:01.796Z,102616.00
2023-05-16T22:36:29.778Z,102623.00
2023-05-16T22:38:56.498Z,102626.00
2023-05-16T22:41:23.268Z,102630.00
2023-05-16T22:43:50.014Z,102626.00
2023-05-16T22:46:16.637Z,102641.00
2023-05-16T22:48:43.448Z,102634.00
2023-05-16T22:51:10.241Z,102633.00
2023-05-16T22:53:37.121Z,102629.00
2023-05-16T22:56:03.975Z,102626.00
2023-05-16T22:58:30.818Z,102633.00
2023-05-16T23:00:58.169Z,102627.00
2023-05-16T23:03:25.373Z,102624.00
2023-05-16T23:05:52.113Z,102635.00
2023-05-16T23:08:18.773Z,102634.00
2023-05-16T23:10:45.697Z,102629.00
2023-05-16T23:13:12.440Z,102630.00
2023-05-16T23:15:39.342Z,102634.00
2023-05-16T23:18:06.395Z,102634.00
2023-05-16T23:20:33.313Z,102633.00
2023-05-16T23:23:00.040Z,102626.00
2023-05-16T23:25:26.877Z,102627.00
2023-05-16T23:27:57.606Z,102631.00
2023-05-16T23:30:24.894Z,102632.00
2023-05-16T23:32:51.779Z,102628.00
2023-05-16T23:35:18.619Z,102624.00
2023-05-16T23:37:45.584Z,102629.00
2023-05-16T23:40:12.629Z,102621.00
2023-05-16T23:42:42.187Z,102626.00
2023-05-16T23:45:10.432Z,102633.00
2023-05-16T23:47:37.229Z,102632.00
2023-05-16T23:50:04.294Z,102640.00
2023-05-16T23:52:31.016Z,102647.00
2023-05-16T23:54:57.656Z,102647.00
2023-05-16T23:57:24.292Z,102646.00
2023-05-16T23:59:51.170Z,102641.00
